Pagina principale
METAR-TAF:

METAR-TAF

Aeroporti :

Tabriz, Iran

latitudine: 38-05N, longitudine: 046-17E, altezza: 1367 m

Osservazione

Il bollettino è stato emesso 17 minuti fa, alle 10:00 UTC
Vento 8 kt da est/sud-est
Temperature 26°C
Umidità 21%
Pressione 1022 hPa
Visibilità 10 km o più
Poco nuvoloso ad un'altezza di 2700 ft

METAR: OITT 071000Z 12008KT 9999 FEW027 26/02 Q1021 A3017 NOSIG

Ora: 14:47 (10:17 UTC)

Previsione

Il bollettino è stato emesso 4 ore e 47 minuti fa, alle 05:30 UTC
Previsione valida dal 07 alle 06 UTC al 08 alle 12 UTC
Vento 12 kt da est
Visibilità: 7000 m
Poco nuvoloso ad un'altezza di 3000 ft
Temporaneamente
dal 07 alle 08 UTC al 07 alle 16 UTC
Vento 24 kt da est
Temporaneamente
dal 08 alle 06 UTC al 08 alle 12 UTC
Vento 20 kt da est

TAF: OITT 070530Z 0706/0812 10012KT 7000 FEW030 TEMPO 0708/0716 08024KT TEMPO 0806/0812 08020KT

Osservazioni e previsioni meteorologiche di più di 4000 aeroporti (messaggi METAR e TAF).

Le stazioni disponibili sono rappresentate dai dischi gialli e rossi sulla carta.

Puntare il mouse per vedere il nome della stazione.

Clicca sopra per visualizzare le osservazioni e previsioni meteorologiche.

Per cambiare la mappa : fare clic sui pulsanti verdi con una croce nera per ingrandire, il pulsante verde con un trattino per diminuire, o sulla freccia verde per le mappe adiacenti.


METAR-TAF: